createdAt,value
2018-07-26T00:01:32.429Z,13.10
2018-07-26T00:04:00.847Z,13.87
2018-07-26T00:06:29.475Z,15.63
2018-07-26T00:08:57.890Z,14.90
2018-07-26T00:11:26.361Z,14.00
2018-07-26T00:13:54.779Z,13.77
2018-07-26T00:16:23.189Z,15.03
2018-07-26T00:18:51.605Z,16.07
2018-07-26T00:21:19.994Z,14.47
2018-07-26T00:23:48.429Z,15.67
2018-07-26T00:26:16.881Z,15.83
2018-07-26T00:28:45.306Z,15.10
2018-07-26T00:31:16.801Z,14.50
2018-07-26T00:33:45.255Z,16.10
2018-07-26T00:36:13.705Z,15.90
2018-07-26T00:38:50.162Z,16.57
2018-07-26T00:41:19.411Z,17.80
2018-07-26T00:43:50.890Z,16.93
2018-07-26T00:46:22.805Z,15.73
2018-07-26T00:48:53.435Z,16.57
2018-07-26T00:51:21.760Z,17.27
2018-07-26T00:53:50.178Z,16.60
2018-07-26T00:56:19.346Z,17.07
2018-07-26T00:58:47.745Z,16.30
2018-07-26T01:01:16.148Z,16.60
2018-07-26T01:03:44.597Z,16.60
2018-07-26T01:06:13.020Z,17.50
2018-07-26T01:08:41.436Z,15.83
2018-07-26T01:11:09.546Z,16.60
2018-07-26T01:13:37.958Z,16.37
2018-07-26T01:16:06.371Z,15.17
2018-07-26T01:18:34.765Z,16.47
2018-07-26T01:21:03.176Z,18.83
2018-07-26T01:23:32.034Z,17.63
2018-07-26T01:26:00.468Z,16.50
2018-07-26T01:28:28.874Z,16.20
2018-07-26T01:30:57.286Z,16.50
2018-07-26T01:33:25.690Z,17.60
2018-07-26T01:35:54.090Z,17.03
2018-07-26T01:38:22.520Z,15.70
2018-07-26T01:40:50.928Z,17.03
2018-07-26T01:43:58.514Z,16.07
2018-07-26T01:46:27.564Z,20.03
2018-07-26T01:48:55.996Z,18.13
2018-07-26T01:51:24.391Z,16.13
2018-07-26T01:53:52.819Z,16.10
2018-07-26T01:56:21.219Z,16.17
2018-07-26T01:58:49.627Z,17.33
2018-07-26T02:01:18.617Z,16.23
2018-07-26T02:03:47.027Z,19.07
2018-07-26T02:06:15.444Z,18.13
2018-07-26T02:08:43.865Z,22.93
2018-07-26T02:11:12.270Z,19.70
2018-07-26T02:13:40.670Z,20.83
2018-07-26T02:16:09.097Z,19.20
2018-07-26T02:18:37.494Z,19.90
2018-07-26T02:21:05.932Z,20.40
2018-07-26T02:23:34.354Z,19.30
2018-07-26T02:26:02.788Z,18.60
2018-07-26T02:28:31.205Z,17.17
2018-07-26T02:30:59.677Z,17.13
2018-07-26T02:33:28.058Z,17.50
2018-07-26T02:35:56.508Z,17.87
2018-07-26T02:38:24.914Z,19.27
2018-07-26T02:40:53.334Z,19.53
2018-07-26T02:43:21.754Z,20.40
2018-07-26T02:45:50.166Z,19.27
2018-07-26T02:48:18.592Z,19.67
2018-07-26T02:50:47.026Z,21.73
2018-07-26T02:53:15.461Z,19.57
2018-07-26T02:55:43.858Z,18.93
2018-07-26T02:58:17.893Z,19.67
2018-07-26T03:00:46.298Z,25.23
2018-07-26T03:03:14.705Z,21.40
2018-07-26T03:05:43.120Z,20.93
2018-07-26T03:08:11.526Z,22.00
2018-07-26T03:10:39.951Z,24.50
2018-07-26T03:13:08.365Z,23.57
2018-07-26T03:15:36.758Z,22.77
2018-07-26T03:18:05.206Z,24.90
2018-07-26T03:20:33.617Z,24.07
2018-07-26T03:23:02.023Z,25.33
2018-07-26T03:25:30.421Z,26.67
2018-07-26T03:27:59.473Z,26.63
2018-07-26T03:30:27.911Z,23.00
2018-07-26T03:32:56.317Z,22.37
2018-07-26T03:35:24.711Z,23.87
2018-07-26T03:37:53.115Z,22.67
2018-07-26T03:40:21.528Z,21.40
2018-07-26T03:42:50.039Z,23.33
2018-07-26T03:45:18.478Z,22.30
2018-07-26T03:47:46.885Z,22.37
2018-07-26T03:50:15.313Z,21.40
2018-07-26T03:52:43.782Z,22.17
2018-07-26T03:55:12.179Z,27.30
2018-07-26T03:57:40.589Z,28.97
2018-07-26T04:00:08.981Z,29.60
2018-07-26T04:02:37.381Z,24.40
2018-07-26T04:05:05.779Z,25.23
2018-07-26T04:07:34.182Z,23.57
2018-07-26T04:10:02.601Z,23.63
2018-07-26T04:12:31.005Z,23.73
2018-07-26T04:14:59.428Z,24.27
2018-07-26T04:17:27.859Z,23.20
2018-07-26T04:19:56.292Z,19.57
2018-07-26T04:22:24.668Z,20.40
2018-07-26T04:24:53.074Z,22.13
2018-07-26T04:27:22.311Z,21.50
2018-07-26T04:29:50.710Z,28.43
2018-07-26T04:32:19.098Z,21.30
2018-07-26T04:34:47.515Z,23.73
2018-07-26T04:37:15.919Z,21.67
2018-07-26T04:39:44.324Z,30.93
2018-07-26T04:42:12.735Z,26.37
2018-07-26T04:44:59.254Z,21.73
2018-07-26T04:47:27.750Z,24.30
2018-07-26T04:49:56.162Z,25.63
2018-07-26T04:52:24.573Z,25.53
2018-07-26T04:54:52.963Z,28.77
2018-07-26T04:57:21.361Z,29.33
2018-07-26T04:59:49.771Z,26.17
2018-07-26T05:02:18.208Z,27.03
2018-07-26T05:04:46.895Z,25.00
2018-07-26T05:07:15.315Z,25.77
2018-07-26T05:09:43.730Z,26.73
2018-07-26T05:12:12.140Z,27.43
2018-07-26T05:14:40.535Z,27.13
2018-07-26T05:17:08.951Z,26.83
2018-07-26T05:19:37.369Z,28.50
2018-07-26T05:22:05.755Z,29.20
2018-07-26T05:24:34.154Z,25.20
2018-07-26T05:27:02.573Z,26.13
2018-07-26T05:29:30.990Z,26.17
2018-07-26T05:32:00.050Z,24.03
2018-07-26T05:34:29.530Z,26.40
2018-07-26T05:36:58.032Z,24.97
2018-07-26T05:39:26.426Z,25.90
2018-07-26T05:41:54.848Z,24.27
2018-07-26T05:44:23.246Z,23.83
2018-07-26T05:46:51.654Z,25.70
2018-07-26T05:49:20.086Z,22.40
2018-07-26T05:51:48.506Z,21.67
2018-07-26T05:54:16.914Z,21.67
2018-07-26T05:56:45.368Z,23.97
2018-07-26T05:59:13.814Z,22.90
2018-07-26T06:01:42.808Z,24.33
2018-07-26T06:04:11.213Z,24.03
2018-07-26T06:06:43.622Z,22.80
2018-07-26T06:09:12.872Z,23.33
2018-07-26T06:11:42.164Z,22.07
2018-07-26T06:14:10.588Z,20.63
2018-07-26T06:16:38.992Z,21.13
2018-07-26T06:19:07.392Z,23.40
2018-07-26T06:21:35.786Z,22.43
2018-07-26T06:24:05.019Z,21.83
2018-07-26T06:26:33.416Z,20.27
2018-07-26T06:29:01.849Z,22.50
2018-07-26T06:31:30.438Z,23.60
2018-07-26T06:33:58.841Z,22.97
2018-07-26T06:36:27.239Z,21.00
2018-07-26T06:38:55.654Z,22.87
2018-07-26T06:41:24.052Z,24.50
2018-07-26T06:43:52.577Z,20.33
2018-07-26T06:46:21.162Z,22.53
2018-07-26T06:48:49.633Z,25.93
2018-07-26T06:51:18.101Z,22.07
2018-07-26T06:53:46.581Z,20.73
2018-07-26T06:56:15.197Z,22.93
2018-07-26T06:58:45.145Z,20.93
2018-07-26T07:01:15.792Z,19.73
2018-07-26T07:03:44.237Z,21.77
2018-07-26T07:06:12.633Z,21.97
2018-07-26T07:08:41.051Z,19.33
2018-07-26T07:11:09.475Z,21.40
2018-07-26T07:13:37.904Z,21.37
2018-07-26T07:16:06.333Z,18.63
2018-07-26T07:18:35.920Z,19.33
2018-07-26T07:21:04.368Z,21.07
2018-07-26T07:23:32.761Z,20.57
2018-07-26T07:26:01.232Z,20.67
2018-07-26T07:28:29.648Z,19.43
2018-07-26T07:30:58.048Z,17.90
2018-07-26T07:33:26.428Z,17.80
2018-07-26T07:35:54.845Z,20.23
2018-07-26T07:38:23.236Z,21.27
2018-07-26T07:40:51.638Z,20.33
2018-07-26T07:43:20.035Z,20.20
2018-07-26T07:45:48.432Z,21.40
2018-07-26T07:48:16.843Z,19.53
2018-07-26T07:50:45.232Z,19.97
2018-07-26T07:53:13.624Z,21.33
2018-07-26T07:55:42.017Z,22.03
2018-07-26T07:58:10.443Z,22.63
2018-07-26T08:00:38.928Z,20.87
2018-07-26T08:03:07.352Z,19.20
2018-07-26T08:05:35.753Z,18.67
2018-07-26T08:08:04.167Z,17.17
2018-07-26T08:10:32.584Z,18.47
2018-07-26T08:13:00.987Z,17.10
2018-07-26T08:15:29.384Z,18.77
2018-07-26T08:17:57.791Z,17.07
2018-07-26T08:20:26.192Z,19.00
2018-07-26T08:22:54.594Z,20.83
2018-07-26T08:25:23.000Z,20.10
2018-07-26T08:27:51.432Z,19.57
2018-07-26T08:30:19.845Z,19.00
2018-07-26T08:32:48.276Z,17.77
2018-07-26T08:35:16.703Z,19.20
2018-07-26T08:37:45.129Z,18.53
2018-07-26T08:40:13.553Z,17.20
2018-07-26T08:42:41.959Z,18.83
2018-07-26T08:45:10.418Z,20.07
2018-07-26T08:47:38.823Z,20.80
2018-07-26T08:50:07.353Z,19.43
2018-07-26T08:52:35.755Z,17.97
2018-07-26T08:55:04.166Z,18.37
2018-07-26T08:57:32.665Z,15.87
2018-07-26T09:00:01.126Z,16.53
2018-07-26T09:02:30.544Z,17.10
2018-07-26T09:04:59.241Z,15.83
2018-07-26T09:07:27.679Z,17.93
2018-07-26T09:09:56.479Z,15.40
2018-07-26T09:12:24.900Z,17.10
2018-07-26T09:14:53.301Z,18.40
2018-07-26T09:17:21.765Z,19.27
2018-07-26T09:19:50.194Z,17.53
2018-07-26T09:22:18.532Z,14.77
2018-07-26T09:24:46.979Z,17.17
2018-07-26T09:27:15.511Z,15.57
2018-07-26T09:29:43.934Z,15.33
2018-07-26T09:32:12.351Z,15.10
2018-07-26T09:34:40.814Z,18.27
2018-07-26T09:37:09.224Z,14.10
2018-07-26T09:39:37.626Z,15.47
2018-07-26T09:42:06.119Z,16.93
2018-07-26T09:44:34.553Z,16.27
2018-07-26T09:47:02.955Z,14.67
2018-07-26T09:49:31.340Z,14.03
2018-07-26T09:51:59.734Z,13.70
2018-07-26T09:54:28.139Z,14.77
2018-07-26T09:56:56.521Z,16.03
2018-07-26T09:59:24.921Z,15.03
2018-07-26T10:01:53.339Z,13.73
2018-07-26T10:04:21.759Z,14.90
2018-07-26T10:06:50.198Z,11.97
2018-07-26T10:09:18.608Z,13.83
2018-07-26T10:11:47.097Z,12.17
2018-07-26T10:14:15.522Z,10.83
2018-07-26T10:16:43.608Z,11.13
2018-07-26T10:19:12.097Z,10.87
2018-07-26T10:21:40.621Z,9.83
2018-07-26T10:24:09.029Z,8.70
2018-07-26T10:26:37.589Z,11.53
2018-07-26T10:29:06.208Z,10.93
2018-07-26T10:31:34.598Z,10.67
2018-07-26T10:34:03.015Z,10.40
2018-07-26T10:36:31.429Z,8.97
2018-07-26T10:38:59.833Z,9.43
2018-07-26T10:41:28.252Z,7.73
2018-07-26T10:43:56.645Z,8.77
2018-07-26T10:46:25.565Z,8.33
2018-07-26T10:48:53.973Z,8.57
2018-07-26T10:51:22.537Z,7.93
2018-07-26T10:53:50.949Z,10.07
2018-07-26T10:56:19.499Z,8.93
2018-07-26T10:58:48.346Z,8.07
2018-07-26T11:01:16.762Z,8.33
2018-07-26T11:03:45.251Z,9.97
2018-07-26T11:06:13.932Z,9.03
2018-07-26T11:08:42.341Z,8.73
2018-07-26T11:11:10.806Z,8.23
2018-07-26T11:13:39.221Z,9.87
2018-07-26T11:16:07.607Z,7.47
2018-07-26T11:18:36.361Z,7.00
2018-07-26T11:21:04.843Z,7.87
2018-07-26T11:23:33.352Z,8.13
2018-07-26T11:26:01.749Z,7.93
2018-07-26T11:28:30.146Z,9.67
2018-07-26T11:30:58.562Z,8.30
2018-07-26T11:33:26.959Z,8.77
2018-07-26T11:35:55.585Z,7.53
2018-07-26T11:38:24.205Z,7.17
2018-07-26T11:40:52.601Z,7.07
2018-07-26T11:43:21.000Z,6.57
2018-07-26T11:45:49.575Z,7.17
2018-07-26T11:48:18.001Z,6.97
2018-07-26T11:50:46.987Z,6.83
2018-07-26T11:53:15.394Z,8.70
2018-07-26T11:55:44.106Z,6.83
2018-07-26T11:58:12.517Z,7.30
2018-07-26T12:00:41.061Z,7.37
2018-07-26T12:03:09.462Z,7.43
2018-07-26T12:05:37.874Z,6.93
2018-07-26T12:08:06.288Z,7.70
2018-07-26T12:10:34.697Z,7.37
2018-07-26T12:13:03.139Z,6.87
2018-07-26T12:15:31.547Z,6.97
2018-07-26T12:17:59.997Z,7.50
2018-07-26T12:20:28.751Z,7.67
2018-07-26T12:22:57.204Z,7.80
2018-07-26T12:25:25.570Z,6.80
2018-07-26T12:27:54.345Z,7.30
2018-07-26T12:30:22.757Z,9.00
2018-07-26T12:32:51.169Z,6.43
2018-07-26T12:35:19.588Z,7.20
2018-07-26T12:37:47.979Z,7.57
2018-07-26T12:40:16.396Z,7.47
2018-07-26T12:42:44.781Z,8.50
2018-07-26T12:45:13.611Z,6.70
2018-07-26T12:47:42.150Z,7.70
2018-07-26T12:50:10.555Z,6.47
2018-07-26T12:52:38.959Z,7.20
2018-07-26T12:55:07.362Z,7.00
2018-07-26T12:57:42.162Z,7.07
2018-07-26T13:00:10.583Z,8.57
2018-07-26T13:02:39.002Z,7.60
2018-07-26T13:05:07.401Z,7.37
2018-07-26T13:07:35.788Z,8.17
2018-07-26T13:10:05.014Z,7.70
2018-07-26T13:12:33.456Z,6.77
2018-07-26T13:15:01.858Z,6.93
2018-07-26T13:17:30.261Z,6.43
2018-07-26T13:19:58.669Z,6.03
2018-07-26T13:22:27.088Z,6.70
2018-07-26T13:24:55.948Z,8.57
2018-07-26T13:27:24.714Z,7.07
2018-07-26T13:29:53.106Z,7.40
2018-07-26T13:32:21.826Z,6.33
2018-07-26T13:34:50.250Z,7.00
2018-07-26T13:37:19.066Z,8.87
2018-07-26T13:39:47.506Z,7.67
2018-07-26T13:42:16.017Z,10.67
2018-07-26T13:44:44.884Z,6.97
2018-07-26T13:47:13.326Z,7.27
2018-07-26T13:49:41.992Z,7.07
2018-07-26T13:52:10.383Z,7.30
2018-07-26T13:54:38.772Z,6.60
2018-07-26T13:57:07.178Z,7.47
2018-07-26T13:59:35.582Z,8.30
2018-07-26T14:02:03.999Z,12.83
2018-07-26T14:04:32.434Z,7.13
2018-07-26T14:07:00.815Z,7.37
2018-07-26T14:09:29.227Z,6.43
2018-07-26T14:11:57.651Z,7.43
2018-07-26T14:14:26.067Z,7.20
2018-07-26T14:16:54.479Z,7.10
2018-07-26T14:19:22.894Z,6.40
2018-07-26T14:21:51.329Z,6.83
2018-07-26T14:24:24.101Z,7.10
2018-07-26T14:26:53.607Z,8.63
2018-07-26T14:29:23.252Z,7.50
2018-07-26T14:31:51.729Z,8.10
2018-07-26T14:34:20.543Z,8.33
2018-07-26T14:36:48.941Z,6.93
2018-07-26T14:39:17.340Z,7.23
2018-07-26T14:41:45.735Z,7.33
2018-07-26T14:44:14.561Z,7.33
2018-07-26T14:46:42.962Z,6.60
2018-07-26T14:49:11.354Z,7.27
2018-07-26T14:51:40.055Z,7.00
2018-07-26T14:54:08.550Z,9.00
2018-07-26T14:56:36.992Z,6.73
2018-07-26T14:59:05.384Z,7.43
2018-07-26T15:01:33.856Z,8.40
2018-07-26T15:04:02.354Z,7.40
2018-07-26T15:06:30.734Z,7.07
2018-07-26T15:08:59.276Z,9.20
2018-07-26T15:11:27.923Z,8.50
2018-07-26T15:13:56.305Z,7.50
2018-07-26T15:16:25.062Z,7.43
2018-07-26T15:18:54.352Z,6.50
2018-07-26T15:21:22.767Z,7.87
2018-07-26T15:23:51.180Z,10.67
2018-07-26T15:26:20.132Z,6.73
2018-07-26T15:28:48.442Z,9.50
2018-07-26T15:31:17.060Z,8.00
2018-07-26T15:33:45.390Z,7.47
2018-07-26T15:36:13.816Z,8.03
2018-07-26T15:38:42.288Z,7.15
2018-07-26T15:41:10.700Z,8.37
2018-07-26T15:43:39.123Z,7.30
2018-07-26T15:46:07.511Z,7.10
2018-07-26T15:48:35.973Z,8.03
2018-07-26T15:51:04.523Z,9.27
2018-07-26T15:53:32.865Z,7.23
2018-07-26T16:02:45.485Z,7.07
2018-07-26T16:05:13.941Z,7.37
2018-07-26T16:07:42.351Z,6.73
2018-07-26T16:10:11.067Z,7.03
2018-07-26T16:12:39.473Z,6.50
2018-07-26T16:15:10.244Z,6.42
2018-07-26T16:17:38.713Z,7.12
2018-07-26T16:20:09.860Z,7.15
2018-07-26T16:22:38.283Z,6.75
2018-07-26T16:25:08.794Z,6.80
2018-07-26T16:27:37.232Z,6.87
2018-07-26T16:30:08.930Z,6.47
2018-07-26T16:32:37.335Z,6.70
2018-07-26T16:35:05.918Z,8.43
2018-07-26T16:37:34.403Z,6.75
2018-07-26T16:40:02.872Z,6.42
2018-07-26T16:42:31.274Z,10.90
2018-07-26T16:44:59.670Z,7.08
2018-07-26T16:47:28.078Z,6.87
2018-07-26T16:49:56.476Z,7.17
2018-07-26T16:52:24.888Z,6.47
2018-07-26T16:54:53.522Z,6.45
2018-07-26T16:57:21.922Z,5.80
2018-07-26T16:59:50.328Z,6.75
2018-07-26T17:02:18.756Z,6.87
2018-07-26T17:04:47.174Z,6.53
2018-07-26T17:07:15.598Z,6.70
2018-07-26T17:09:44.916Z,11.37
2018-07-26T17:12:13.988Z,6.83
2018-07-26T17:14:42.802Z,8.87
2018-07-26T17:17:11.799Z,7.17
2018-07-26T17:19:40.369Z,6.70
2018-07-26T17:22:08.801Z,6.53
2018-07-26T17:24:37.231Z,7.47
2018-07-26T17:27:05.695Z,9.07
2018-07-26T17:29:34.093Z,9.27
2018-07-26T17:32:02.535Z,10.13
2018-07-26T17:34:31.055Z,9.93
2018-07-26T17:36:59.623Z,9.30
2018-07-26T17:39:28.029Z,9.40
2018-07-26T17:41:56.437Z,9.67
2018-07-26T17:44:24.855Z,9.00
2018-07-26T17:46:53.305Z,10.17
2018-07-26T17:49:21.721Z,9.13
2018-07-26T17:51:50.125Z,10.40
2018-07-26T17:54:19.051Z,11.67
2018-07-26T17:56:47.286Z,12.13
2018-07-26T17:59:15.675Z,12.07
2018-07-26T18:01:44.111Z,10.97
2018-07-26T18:04:12.575Z,13.63
2018-07-26T18:06:41.041Z,10.33
2018-07-26T18:09:09.951Z,15.63
2018-07-26T18:11:38.937Z,11.47
2018-07-26T18:14:07.047Z,9.63
2018-07-26T18:16:35.521Z,10.73
2018-07-26T18:19:03.987Z,9.83
2018-07-26T18:21:32.390Z,9.90
2018-07-26T18:24:00.797Z,7.47
2018-07-26T18:26:29.243Z,6.97
2018-07-26T18:28:57.635Z,8.30
2018-07-26T18:31:26.351Z,7.53
2018-07-26T18:33:54.726Z,7.00
2018-07-26T18:36:23.114Z,7.87
2018-07-26T18:38:51.500Z,10.30
2018-07-26T18:41:19.910Z,10.23
2018-07-26T18:43:48.363Z,6.83
2018-07-26T18:46:16.762Z,7.87
2018-07-26T18:48:45.536Z,6.93
2018-07-26T18:51:13.932Z,8.27
2018-07-26T18:53:42.328Z,6.77
2018-07-26T18:56:10.788Z,6.30
2018-07-26T18:58:39.174Z,6.47
2018-07-26T19:01:07.591Z,8.13
2018-07-26T19:05:05.430Z,6.90
2018-07-26T19:07:34.180Z,7.03
2018-07-26T19:10:02.591Z,7.53
2018-07-26T19:12:30.982Z,6.77
2018-07-26T19:14:59.386Z,6.77
2018-07-26T19:17:27.863Z,9.00
2018-07-26T19:19:56.227Z,9.47
2018-07-26T19:22:24.652Z,7.93
2018-07-26T19:24:53.117Z,6.87
2018-07-26T19:27:21.533Z,7.10
2018-07-26T19:29:49.927Z,7.23
2018-07-26T19:32:18.013Z,8.10
2018-07-26T19:34:46.413Z,6.40
2018-07-26T19:37:14.804Z,7.03
2018-07-26T19:39:43.223Z,9.17
2018-07-26T19:42:11.642Z,8.57
2018-07-26T19:44:40.235Z,6.87
2018-07-26T19:47:08.725Z,7.03
2018-07-26T19:49:37.141Z,6.93
2018-07-26T19:52:05.649Z,9.80
2018-07-26T19:54:34.035Z,7.10
2018-07-26T19:57:02.464Z,6.80
2018-07-26T19:59:30.933Z,8.17
2018-07-26T20:01:59.357Z,8.73
2018-07-26T20:04:27.765Z,10.40
2018-07-26T20:06:56.188Z,10.70
2018-07-26T20:09:24.592Z,8.33
2018-07-26T20:11:53.390Z,9.83
2018-07-26T20:14:21.789Z,7.50
2018-07-26T20:16:50.396Z,7.57
2018-07-26T20:19:18.777Z,7.40
2018-07-26T20:21:47.274Z,8.47
2018-07-26T20:24:15.702Z,7.70
2018-07-26T20:26:44.239Z,7.47
2018-07-26T20:29:12.737Z,7.50
2018-07-26T20:31:41.750Z,7.73
2018-07-26T20:34:10.210Z,10.60
2018-07-26T20:36:39.652Z,8.67
2018-07-26T20:39:11.294Z,10.40
2018-07-26T20:41:39.821Z,9.87
2018-07-26T20:44:09.286Z,9.40
2018-07-26T20:46:38.169Z,10.30
2018-07-26T20:49:06.576Z,13.10
2018-07-26T20:51:34.988Z,12.13
2018-07-26T20:54:03.807Z,8.43
2018-07-26T20:56:32.201Z,7.27
2018-07-26T20:59:00.696Z,7.77
2018-07-26T21:01:29.335Z,8.03
2018-07-26T21:03:58.777Z,9.47
2018-07-26T21:06:27.191Z,8.03
2018-07-26T21:08:56.119Z,8.40
2018-07-26T21:11:24.655Z,9.17
2018-07-26T21:13:53.195Z,9.50
2018-07-26T21:16:21.593Z,18.20
2018-07-26T21:18:50.009Z,9.80
2018-07-26T21:21:18.623Z,8.73
2018-07-26T21:23:47.039Z,8.07
2018-07-26T21:26:16.013Z,10.00
2018-07-26T21:28:44.407Z,8.97
2018-07-26T21:31:13.069Z,9.40
2018-07-26T21:33:41.475Z,11.00
2018-07-26T21:36:09.881Z,9.37
2018-07-26T21:38:38.593Z,9.77
2018-07-26T21:41:06.984Z,9.70
2018-07-26T21:43:35.386Z,8.83
2018-07-26T21:46:03.786Z,9.80
2018-07-26T21:48:32.214Z,11.00
2018-07-26T21:51:00.646Z,9.67
2018-07-26T21:53:29.052Z,14.00
2018-07-26T21:55:57.462Z,9.93
2018-07-26T21:58:25.858Z,10.37
2018-07-26T22:00:58.473Z,12.13
2018-07-26T22:03:28.999Z,10.17
2018-07-26T22:05:57.392Z,10.00
2018-07-26T22:08:25.787Z,11.00
2018-07-26T22:10:54.197Z,10.07
2018-07-26T22:13:22.583Z,10.80
2018-07-26T22:15:52.142Z,10.60
2018-07-26T22:18:21.881Z,13.60
2018-07-26T22:20:50.308Z,10.40
2018-07-26T22:23:18.836Z,9.93
2018-07-26T22:25:48.321Z,9.60
2018-07-26T22:28:17.923Z,11.47
2018-07-26T22:30:47.426Z,11.93
2018-07-26T22:33:15.857Z,12.17
2018-07-26T22:35:45.301Z,12.00
2018-07-26T22:38:14.338Z,11.97
2018-07-26T22:40:42.731Z,10.73
2018-07-26T22:43:11.117Z,10.83
2018-07-26T22:45:40.242Z,10.90
2018-07-26T22:48:08.663Z,11.47
2018-07-26T22:50:37.070Z,11.23
2018-07-26T22:53:05.541Z,11.90
2018-07-26T22:55:33.933Z,10.70
2018-07-26T22:58:02.321Z,11.20
2018-07-26T23:00:30.825Z,12.70
2018-07-26T23:02:59.215Z,12.70
2018-07-26T23:05:27.607Z,13.80
2018-07-26T23:07:55.994Z,12.43
2018-07-26T23:10:24.777Z,11.93
2018-07-26T23:12:53.233Z,12.53
2018-07-26T23:15:21.705Z,13.03
2018-07-26T23:17:50.080Z,12.67
2018-07-26T23:20:18.481Z,13.77
2018-07-26T23:22:51.717Z,15.40
2018-07-26T23:25:20.703Z,15.20
2018-07-26T23:27:49.122Z,15.70
2018-07-26T23:30:17.540Z,19.20
2018-07-26T23:32:46.160Z,14.60
2018-07-26T23:35:14.573Z,18.87
2018-07-26T23:37:43.005Z,17.27
2018-07-26T23:40:12.169Z,16.83
2018-07-26T23:42:41.445Z,18.50
2018-07-26T23:45:10.218Z,16.40
2018-07-26T23:47:38.605Z,15.53
2018-07-26T23:50:07.714Z,14.57
2018-07-26T23:52:36.122Z,16.20
2018-07-26T23:55:05.006Z,16.10
2018-07-26T23:57:33.434Z,15.00
